createdAt,value
2024-01-11T00:00:17.544Z,-4.14
2024-01-11T00:02:47.377Z,-4.15
2024-01-11T00:05:15.339Z,-4.08
2024-01-11T00:07:43.246Z,-4.03
2024-01-11T00:10:11.020Z,-4.02
2024-01-11T00:12:38.855Z,-3.96
2024-01-11T00:15:07.749Z,-3.96
2024-01-11T00:17:35.764Z,-3.94
2024-01-11T00:20:04.191Z,-3.91
2024-01-11T00:22:32.771Z,-3.93
2024-01-11T00:25:00.510Z,-3.91
2024-01-11T00:27:28.354Z,-3.90
2024-01-11T00:29:56.111Z,-3.91
2024-01-11T00:32:24.049Z,-3.93
2024-01-11T00:34:51.995Z,-3.99
2024-01-11T00:37:20.258Z,-4.04
2024-01-11T00:39:48.278Z,-4.11
2024-01-11T00:42:16.196Z,-4.17
2024-01-11T00:44:45.696Z,-4.20
2024-01-11T00:47:13.574Z,-4.21
2024-01-11T00:49:41.669Z,-4.21
2024-01-11T00:52:10.089Z,-4.22
2024-01-11T00:54:38.134Z,-4.23
2024-01-11T00:57:09.595Z,-4.19
2024-01-11T00:59:45.554Z,-4.19
2024-01-11T01:02:14.629Z,-4.17
2024-01-11T01:04:47.550Z,-4.12
2024-01-11T01:07:18.948Z,-4.11
2024-01-11T01:09:48.409Z,-4.08
2024-01-11T01:12:29.352Z,-4.11
2024-01-11T01:15:04.521Z,-4.12
2024-01-11T01:17:38.354Z,-4.06
2024-01-11T01:20:12.192Z,-4.00
2024-01-11T01:22:44.046Z,-3.97
2024-01-11T01:25:16.540Z,-4.00
2024-01-11T01:27:45.391Z,-4.00
2024-01-11T01:30:13.926Z,-4.02
2024-01-11T01:32:41.934Z,-4.06
2024-01-11T01:35:10.032Z,-4.12
2024-01-11T01:37:38.617Z,-4.18
2024-01-11T01:40:08.759Z,-4.20
2024-01-11T01:42:36.671Z,-4.19
2024-01-11T01:45:06.505Z,-4.21
2024-01-11T01:47:34.457Z,-4.17
2024-01-11T01:50:04.029Z,-4.14
2024-01-11T01:52:33.337Z,-4.14
2024-01-11T01:55:06.253Z,-4.10
2024-01-11T01:57:36.343Z,-4.08
2024-01-11T02:00:06.529Z,-4.07
2024-01-11T02:02:36.825Z,-4.06
2024-01-11T02:05:06.740Z,-4.11
2024-01-11T02:07:35.561Z,-4.15
2024-01-11T02:10:04.238Z,-4.14
2024-01-11T02:12:32.592Z,-4.11
2024-01-11T02:15:00.374Z,-4.06
2024-01-11T02:17:28.519Z,-4.03
2024-01-11T02:19:56.608Z,-3.99
2024-01-11T02:22:35.768Z,-3.99
2024-01-11T02:25:04.230Z,-4.00
2024-01-11T02:27:32.038Z,-4.02
2024-01-11T02:29:59.863Z,-4.03
2024-01-11T02:32:27.983Z,-4.02
2024-01-11T02:34:56.496Z,-4.00
2024-01-11T02:37:24.646Z,-4.00
2024-01-11T02:39:52.451Z,-3.99
2024-01-11T02:42:20.515Z,-4.01
2024-01-11T02:44:48.764Z,-4.06
2024-01-11T02:47:16.565Z,-4.12
2024-01-11T02:49:44.441Z,-4.10
2024-01-11T02:52:12.379Z,-4.11
2024-01-11T02:54:40.253Z,-4.16
2024-01-11T02:57:08.109Z,-4.19
2024-01-11T02:59:36.826Z,-4.24
2024-01-11T03:02:04.892Z,-4.30
2024-01-11T03:04:32.867Z,-4.28
2024-01-11T03:07:00.668Z,-4.34
2024-01-11T03:09:33.907Z,-4.42
2024-01-11T03:12:14.174Z,-4.47
2024-01-11T03:14:43.525Z,-4.45
2024-01-11T03:17:11.980Z,-4.42
2024-01-11T03:19:43.173Z,-4.36
2024-01-11T03:22:13.152Z,-4.38
2024-01-11T03:24:41.361Z,-4.35
2024-01-11T03:27:09.525Z,-4.31
2024-01-11T03:29:37.898Z,-4.27
2024-01-11T03:32:07.315Z,-4.24
2024-01-11T03:34:35.180Z,-4.22
2024-01-11T03:37:02.969Z,-4.23
2024-01-11T03:39:30.870Z,-4.22
2024-01-11T03:41:58.666Z,-4.21
2024-01-11T03:44:26.621Z,-4.23
2024-01-11T03:46:54.570Z,-4.23
2024-01-11T03:49:22.714Z,-4.29
2024-01-11T03:51:50.514Z,-4.36
2024-01-11T03:54:18.288Z,-4.40
2024-01-11T03:56:46.423Z,-4.44
2024-01-11T03:59:14.823Z,-4.54
2024-01-11T04:01:42.753Z,-4.65
2024-01-11T04:04:11.617Z,-4.79
2024-01-11T04:06:39.639Z,-4.87
2024-01-11T04:09:07.892Z,-4.96
2024-01-11T04:11:35.809Z,-5.03
2024-01-11T04:14:04.089Z,-5.06
2024-01-11T04:16:32.102Z,-5.11
2024-01-11T04:19:00.862Z,-5.13
2024-01-11T04:21:29.524Z,-5.14
2024-01-11T04:23:58.154Z,-5.20
2024-01-11T04:26:26.171Z,-5.26
2024-01-11T04:28:57.031Z,-5.31
2024-01-11T04:31:24.044Z,-5.34
2024-01-11T04:33:52.126Z,-5.36
2024-01-11T04:36:20.145Z,-5.37
2024-01-11T04:38:48.204Z,-5.39
2024-01-11T04:41:17.008Z,-5.42
2024-01-11T04:43:45.728Z,-5.44
2024-01-11T04:46:22.719Z,-5.46
2024-01-11T04:48:51.449Z,-5.50
2024-01-11T04:51:19.926Z,-5.50
2024-01-11T04:53:48.248Z,-5.49
2024-01-11T04:56:18.119Z,-5.46
2024-01-11T04:58:46.605Z,-5.46
2024-01-11T05:01:16.458Z,-5.45
2024-01-11T05:03:46.619Z,-5.47
2024-01-11T05:06:23.086Z,-5.49
2024-01-11T05:08:55.323Z,-5.50
2024-01-11T05:11:24.925Z,-5.50
2024-01-11T05:13:53.018Z,-5.52
2024-01-11T05:16:23.174Z,-5.51
2024-01-11T05:18:54.720Z,-5.51
2024-01-11T05:21:23.518Z,-5.52
2024-01-11T05:23:51.908Z,-5.53
2024-01-11T05:26:20.127Z,-5.53
2024-01-11T05:28:47.807Z,-5.51
2024-01-11T05:31:16.996Z,-5.55
2024-01-11T05:33:45.415Z,-5.59
2024-01-11T05:36:13.550Z,-5.60
2024-01-11T05:38:41.893Z,-5.62
2024-01-11T05:41:10.325Z,-5.66
2024-01-11T05:43:39.685Z,-5.70
2024-01-11T05:46:08.226Z,-5.72
2024-01-11T05:48:36.657Z,-5.73
2024-01-11T05:51:04.620Z,-5.70
2024-01-11T05:53:34.399Z,-5.69
2024-01-11T05:56:03.648Z,-5.68
2024-01-11T05:58:31.609Z,-5.70
2024-01-11T06:00:59.522Z,-5.75
2024-01-11T06:03:28.790Z,-5.80
2024-01-11T06:05:57.050Z,-5.82
2024-01-11T06:08:25.146Z,-5.83
2024-01-11T06:10:53.147Z,-5.86
2024-01-11T06:13:21.033Z,-5.90
2024-01-11T06:15:50.536Z,-5.93
2024-01-11T06:18:18.521Z,-5.98
2024-01-11T06:20:46.531Z,-6.02
2024-01-11T06:23:14.329Z,-6.04
2024-01-11T06:25:42.204Z,-6.07
2024-01-11T06:28:10.496Z,-6.05
2024-01-11T06:30:38.329Z,-6.06
2024-01-11T06:33:06.422Z,-6.06
2024-01-11T06:35:34.489Z,-6.04
2024-01-11T06:38:03.137Z,-6.02
2024-01-11T06:40:30.912Z,-5.99
2024-01-11T06:42:58.908Z,-5.90
2024-01-11T06:45:26.680Z,-5.82
2024-01-11T06:47:54.666Z,-5.75
2024-01-11T06:50:22.850Z,-5.67
2024-01-11T06:52:50.752Z,-5.60
2024-01-11T06:55:18.807Z,-5.50
2024-01-11T06:57:49.633Z,-5.40
2024-01-11T07:00:17.865Z,-5.31
2024-01-11T07:02:45.837Z,-5.21
2024-01-11T07:05:14.127Z,-5.15
2024-01-11T07:07:41.937Z,-5.09
2024-01-11T07:10:10.172Z,-5.05
2024-01-11T07:12:38.766Z,-4.94
2024-01-11T07:15:08.509Z,-4.86
2024-01-11T07:17:36.384Z,-4.78
2024-01-11T07:20:06.453Z,-4.69
2024-01-11T07:22:34.340Z,-4.60
2024-01-11T07:25:02.394Z,-4.53
2024-01-11T07:27:30.395Z,-4.46
2024-01-11T07:29:59.107Z,-4.38
2024-01-11T07:32:27.440Z,-4.27
2024-01-11T07:34:55.324Z,-4.18
2024-01-11T07:37:23.167Z,-4.10
2024-01-11T07:39:50.997Z,-4.02
2024-01-11T07:42:19.735Z,-3.95
2024-01-11T07:44:47.865Z,-3.88
2024-01-11T07:47:15.679Z,-3.81
2024-01-11T07:49:43.598Z,-3.76
2024-01-11T07:52:11.374Z,-3.69
2024-01-11T07:54:39.288Z,-3.62
2024-01-11T07:57:07.015Z,-3.54
2024-01-11T07:59:36.594Z,-3.46
2024-01-11T08:02:04.730Z,-3.46
2024-01-11T08:04:32.830Z,-3.43
2024-01-11T08:07:00.704Z,-3.37
2024-01-11T08:09:29.709Z,-3.44
2024-01-11T08:11:58.059Z,-3.43
2024-01-11T08:14:28.198Z,-3.39
2024-01-11T08:16:56.214Z,-3.30
2024-01-11T08:19:24.325Z,-3.31
2024-01-11T08:21:52.244Z,-3.34
2024-01-11T08:24:21.076Z,-3.31
2024-01-11T08:26:48.963Z,-3.21
2024-01-11T08:29:16.781Z,-3.07
2024-01-11T08:31:44.612Z,-2.97
2024-01-11T08:34:12.593Z,-2.88
2024-01-11T08:36:40.739Z,-2.78
2024-01-11T08:39:13.213Z,-2.66
2024-01-11T08:41:41.409Z,-2.58
2024-01-11T08:44:10.263Z,-2.54
2024-01-11T08:46:38.408Z,-2.51
2024-01-11T08:49:06.347Z,-2.50
2024-01-11T08:51:34.446Z,-2.42
2024-01-11T08:54:02.830Z,-2.39
2024-01-11T08:56:30.744Z,-2.43
2024-01-11T08:58:59.639Z,-2.41
2024-01-11T09:01:27.907Z,-2.43
2024-01-11T09:03:55.802Z,-2.33
2024-01-11T09:06:23.680Z,-2.22
2024-01-11T09:08:51.666Z,-2.25
2024-01-11T09:11:19.466Z,-2.16
2024-01-11T09:13:47.488Z,-2.07
2024-01-11T09:16:17.748Z,-2.00
2024-01-11T09:18:46.546Z,-1.98
2024-01-11T09:21:14.590Z,-2.04
2024-01-11T09:23:42.557Z,-2.03
2024-01-11T09:26:10.790Z,-1.92
2024-01-11T09:28:38.636Z,-1.83
2024-01-11T09:31:06.589Z,-1.74
2024-01-11T09:33:34.867Z,-1.78
2024-01-11T09:36:03.339Z,-1.88
2024-01-11T09:38:32.090Z,-1.89
2024-01-11T09:41:15.057Z,-1.79
2024-01-11T09:43:43.675Z,-1.62
2024-01-11T09:46:12.883Z,-1.51
2024-01-11T09:48:44.845Z,-1.40
2024-01-11T09:51:13.584Z,-1.30
2024-01-11T09:53:43.753Z,-1.24
2024-01-11T09:56:11.939Z,-1.22
2024-01-11T09:58:45.229Z,-1.18
2024-01-11T10:01:14.905Z,-1.15
2024-01-11T10:03:43.201Z,-1.19
2024-01-11T10:06:11.945Z,-1.17
2024-01-11T10:08:39.893Z,-1.18
2024-01-11T10:11:08.249Z,-1.14
2024-01-11T10:13:38.137Z,-1.21
2024-01-11T10:16:13.247Z,-1.23
2024-01-11T10:18:41.512Z,-1.21
2024-01-11T10:21:10.319Z,-1.11
2024-01-11T10:23:39.645Z,-0.96
2024-01-11T10:26:10.438Z,-0.86
2024-01-11T10:28:38.449Z,-0.73
2024-01-11T10:31:07.777Z,-0.72
2024-01-11T10:33:36.553Z,-0.72
2024-01-11T10:36:06.595Z,-0.60
2024-01-11T10:38:37.969Z,-0.52
2024-01-11T10:41:10.597Z,-0.52
2024-01-11T10:43:39.479Z,-0.57
2024-01-11T10:46:08.972Z,-0.55
2024-01-11T10:48:42.317Z,-0.49
2024-01-11T10:51:13.960Z,-0.45
2024-01-11T10:53:47.896Z,-0.53
2024-01-11T10:56:20.801Z,-0.54
2024-01-11T10:58:49.418Z,-0.52
2024-01-11T11:01:19.055Z,-0.46
2024-01-11T11:03:49.401Z,-0.39
2024-01-11T11:06:19.974Z,-0.34
2024-01-11T11:08:50.473Z,-0.25
2024-01-11T11:11:19.501Z,-0.21
2024-01-11T11:13:51.867Z,-0.18
2024-01-11T11:16:20.501Z,-0.16
2024-01-11T11:18:48.630Z,-0.16
2024-01-11T11:21:16.442Z,-0.17
2024-01-11T11:23:45.748Z,-0.14
2024-01-11T11:26:20.999Z,-0.07
2024-01-11T11:28:49.488Z,-0.10
2024-01-11T11:31:43.886Z,-0.11
2024-01-11T11:34:15.282Z,-0.05
2024-01-11T11:36:43.698Z,0.01
2024-01-11T11:39:14.040Z,-0.04
2024-01-11T11:41:43.205Z,-0.08
2024-01-11T11:44:16.475Z,-0.08
2024-01-11T11:46:45.848Z,0.01
2024-01-11T11:49:15.072Z,0.12
2024-01-11T11:51:44.515Z,0.19
2024-01-11T11:54:14.640Z,0.28
2024-01-11T11:56:43.130Z,0.32
2024-01-11T11:59:11.116Z,0.31
2024-01-11T12:01:40.713Z,0.34
2024-01-11T12:04:09.602Z,0.40
2024-01-11T12:06:38.406Z,0.49
2024-01-11T12:09:07.137Z,0.59
2024-01-11T12:11:35.081Z,0.65
2024-01-11T12:14:02.898Z,0.71
2024-01-11T12:16:30.655Z,0.70
2024-01-11T12:18:58.682Z,0.74
2024-01-11T12:21:27.515Z,0.74
2024-01-11T12:23:56.508Z,0.76
2024-01-11T12:26:24.846Z,0.79
2024-01-11T12:28:53.619Z,0.83
2024-01-11T12:31:22.786Z,0.88
2024-01-11T12:33:51.487Z,0.91
2024-01-11T12:36:19.750Z,0.90
2024-01-11T12:38:53.027Z,0.90
2024-01-11T12:41:22.416Z,0.91
2024-01-11T12:43:50.417Z,0.93
2024-01-11T12:46:18.348Z,0.94
2024-01-11T12:48:46.462Z,0.98
2024-01-11T12:53:50.676Z,1.04
2024-01-11T12:56:22.018Z,0.96
2024-01-11T12:58:49.766Z,0.94
2024-01-11T13:01:18.704Z,0.91
2024-01-11T13:03:47.748Z,0.92
2024-01-11T13:06:18.865Z,0.87
2024-01-11T13:08:46.957Z,0.86
2024-01-11T13:11:16.769Z,0.90
2024-01-11T13:13:46.467Z,0.97
2024-01-11T13:16:15.636Z,1.02
2024-01-11T13:18:43.674Z,1.10
2024-01-11T13:21:13.042Z,1.13
2024-01-11T13:23:41.203Z,1.15
2024-01-11T13:26:09.577Z,1.18
2024-01-11T13:28:37.634Z,1.24
2024-01-11T13:31:05.939Z,1.24
2024-01-11T13:33:33.783Z,1.24
2024-01-11T13:36:01.862Z,1.25
2024-01-11T13:38:29.922Z,1.32
2024-01-11T13:40:57.612Z,1.35
2024-01-11T13:43:25.423Z,1.34
2024-01-11T13:45:54.992Z,1.36
2024-01-11T13:48:22.696Z,1.36
2024-01-11T13:50:50.612Z,1.36
2024-01-11T13:53:18.669Z,1.30
2024-01-11T13:55:46.588Z,1.29
2024-01-11T13:58:14.554Z,1.30
2024-01-11T14:00:42.502Z,1.29
2024-01-11T14:03:11.191Z,1.28
2024-01-11T14:05:39.319Z,1.29
2024-01-11T14:08:08.247Z,1.34
2024-01-11T14:10:36.336Z,1.36
2024-01-11T14:13:04.682Z,1.39
2024-01-11T14:15:32.751Z,1.35
2024-01-11T14:18:00.801Z,1.35
2024-01-11T14:20:29.363Z,1.33
2024-01-11T14:22:57.428Z,1.34
2024-01-11T14:25:25.420Z,1.35
2024-01-11T14:27:55.814Z,1.41
2024-01-11T14:30:25.759Z,1.40
2024-01-11T14:32:54.257Z,1.43
2024-01-11T14:35:22.349Z,1.44
2024-01-11T14:37:50.218Z,1.43
2024-01-11T14:40:17.963Z,1.41
2024-01-11T14:42:46.743Z,1.38
2024-01-11T14:45:14.540Z,1.35
2024-01-11T14:47:42.658Z,1.31
2024-01-11T14:50:12.223Z,1.29
2024-01-11T14:52:40.242Z,1.25
2024-01-11T14:55:10.209Z,1.22
2024-01-11T14:57:40.390Z,1.19
2024-01-11T15:00:10.817Z,1.16
2024-01-11T15:02:38.889Z,1.13
2024-01-11T15:05:07.781Z,1.09
2024-01-11T15:07:35.781Z,1.05
2024-01-11T15:10:04.077Z,1.02
2024-01-11T15:12:32.103Z,1.01
2024-01-11T15:15:00.091Z,0.98
2024-01-11T15:17:30.308Z,0.96
2024-01-11T15:19:58.529Z,0.96
2024-01-11T15:22:27.429Z,0.95
2024-01-11T15:24:55.480Z,0.96
2024-01-11T15:27:23.342Z,0.97
2024-01-11T15:29:54.156Z,0.98
2024-01-11T15:32:23.290Z,0.98
2024-01-11T15:34:51.771Z,0.98
2024-01-11T15:37:20.414Z,0.98
2024-01-11T15:39:48.272Z,0.96
2024-01-11T15:42:16.805Z,0.96
2024-01-11T15:44:45.302Z,0.95
2024-01-11T15:47:13.504Z,0.93
2024-01-11T15:49:41.515Z,0.89
2024-01-11T15:52:10.566Z,0.86
2024-01-11T15:54:38.499Z,0.78
2024-01-11T15:57:07.572Z,0.72
2024-01-11T15:59:35.675Z,0.69
2024-01-11T16:02:07.510Z,0.68
2024-01-11T16:04:36.043Z,0.64
2024-01-11T16:07:04.527Z,0.62
2024-01-11T16:09:32.654Z,0.58
2024-01-11T16:12:04.129Z,0.55
2024-01-11T16:14:30.096Z,0.54
2024-01-11T16:16:58.237Z,0.52
2024-01-11T16:19:26.606Z,0.51
2024-01-11T16:21:54.646Z,0.50
2024-01-11T16:24:22.505Z,0.50
2024-01-11T16:26:50.648Z,0.51
2024-01-11T16:29:18.544Z,0.51
2024-01-11T16:31:46.331Z,0.53
2024-01-11T16:34:16.071Z,0.53
2024-01-11T16:36:44.927Z,0.52
2024-01-11T16:39:12.682Z,0.49
2024-01-11T16:41:42.604Z,0.46
2024-01-11T16:44:10.655Z,0.44
2024-01-11T16:46:38.379Z,0.41
2024-01-11T16:49:07.344Z,0.38
2024-01-11T16:51:35.505Z,0.38
2024-01-11T16:54:05.104Z,0.39
2024-01-11T16:56:32.952Z,0.39
2024-01-11T16:59:00.819Z,0.40
2024-01-11T17:01:28.780Z,0.44
2024-01-11T17:03:56.848Z,0.45
2024-01-11T17:06:24.924Z,0.48
2024-01-11T17:08:53.602Z,0.49
2024-01-11T17:11:21.450Z,0.49
2024-01-11T17:13:49.266Z,0.46
2024-01-11T17:16:21.509Z,0.47
2024-01-11T17:18:49.877Z,0.49
2024-01-11T17:21:17.975Z,0.48
2024-01-11T17:23:46.038Z,0.46
2024-01-11T17:26:15.505Z,0.44
2024-01-11T17:28:43.659Z,0.41
2024-01-11T17:31:11.420Z,0.39
2024-01-11T17:33:39.199Z,0.37
2024-01-11T17:36:08.843Z,0.37
2024-01-11T17:38:38.103Z,0.34
2024-01-11T17:41:06.106Z,0.34
2024-01-11T17:43:35.893Z,0.35
2024-01-11T17:46:05.353Z,0.37
2024-01-11T17:48:33.335Z,0.35
2024-01-11T17:51:01.452Z,0.38
2024-01-11T17:53:29.452Z,0.39
2024-01-11T17:55:57.374Z,0.40
2024-01-11T17:58:25.313Z,0.41
2024-01-11T18:00:54.574Z,0.41
2024-01-11T18:03:22.646Z,0.39
2024-01-11T18:05:50.493Z,0.40
2024-01-11T18:08:18.593Z,0.39
2024-01-11T18:10:46.484Z,0.38
2024-01-11T18:13:15.136Z,0.36
2024-01-11T18:15:42.951Z,0.34
2024-01-11T18:18:10.852Z,0.34
2024-01-11T18:20:38.744Z,0.31
2024-01-11T18:23:07.043Z,0.29
2024-01-11T18:25:35.449Z,0.29
2024-01-11T18:28:03.482Z,0.29
2024-01-11T18:30:31.262Z,0.27
2024-01-11T18:33:00.445Z,0.25
2024-01-11T18:35:28.659Z,0.26
2024-01-11T18:37:56.466Z,0.26
2024-01-11T18:40:25.859Z,0.27
2024-01-11T18:42:55.045Z,0.28
2024-01-11T18:45:22.944Z,0.29
2024-01-11T18:47:51.021Z,0.27
2024-01-11T18:50:19.658Z,0.27
2024-01-11T18:52:47.564Z,0.25
2024-01-11T18:55:18.018Z,0.25
2024-01-11T18:57:46.749Z,0.24
2024-01-11T19:00:15.752Z,0.24
2024-01-11T19:02:44.590Z,0.22
2024-01-11T19:05:14.120Z,0.20
2024-01-11T19:07:43.741Z,0.21
2024-01-11T19:10:11.677Z,0.20
2024-01-11T19:12:39.542Z,0.19
2024-01-11T19:15:08.854Z,0.22
2024-01-11T19:17:36.880Z,0.23
2024-01-11T19:20:06.409Z,0.24
2024-01-11T19:22:34.339Z,0.26
2024-01-11T19:25:03.951Z,0.28
2024-01-11T19:27:32.220Z,0.27
2024-01-11T19:30:01.952Z,0.27
2024-01-11T19:32:31.014Z,0.27
2024-01-11T19:34:58.896Z,0.27
2024-01-11T19:37:26.631Z,0.27
2024-01-11T19:39:54.400Z,0.27
2024-01-11T19:42:22.339Z,0.27
2024-01-11T19:44:50.177Z,0.26
2024-01-11T19:47:19.636Z,0.26
2024-01-11T19:49:47.654Z,0.26
2024-01-11T19:52:15.559Z,0.23
2024-01-11T19:54:43.446Z,0.22
2024-01-11T19:57:11.325Z,0.21
2024-01-11T19:59:42.445Z,0.21
2024-01-11T20:02:11.190Z,0.20
2024-01-11T20:04:39.261Z,0.19
2024-01-11T20:07:07.545Z,0.17
2024-01-11T20:09:35.622Z,0.10
2024-01-11T20:12:05.712Z,0.04
2024-01-11T20:14:34.918Z,-0.04
2024-01-11T20:17:03.230Z,-0.15
2024-01-11T20:19:32.410Z,-0.27
2024-01-11T20:22:00.283Z,-0.35
2024-01-11T20:24:28.334Z,-0.40
2024-01-11T20:26:56.320Z,-0.45
2024-01-11T20:29:25.986Z,-0.51
2024-01-11T20:31:54.038Z,-0.57
2024-01-11T20:34:22.142Z,-0.58
2024-01-11T20:36:50.025Z,-0.58
2024-01-11T20:39:17.931Z,-0.60
2024-01-11T20:41:46.168Z,-0.62
2024-01-11T20:44:15.868Z,-0.73
2024-01-11T20:46:43.904Z,-0.84
2024-01-11T20:49:11.773Z,-0.87
2024-01-11T20:51:43.427Z,-0.87
2024-01-11T20:54:11.221Z,-0.88
2024-01-11T20:56:44.466Z,-0.94
2024-01-11T20:59:12.296Z,-1.04
2024-01-11T21:01:40.195Z,-1.07
2024-01-11T21:04:08.460Z,-1.07
2024-01-11T21:06:36.546Z,-1.09
2024-01-11T21:09:06.467Z,-1.10
2024-01-11T21:11:34.502Z,-1.09
2024-01-11T21:14:02.498Z,-1.06
2024-01-11T21:16:30.602Z,-1.08
2024-01-11T21:18:58.575Z,-1.17
2024-01-11T21:21:27.049Z,-1.28
2024-01-11T21:23:59.598Z,-1.37
2024-01-11T21:26:28.423Z,-1.42
2024-01-11T21:28:56.584Z,-1.44
2024-01-11T21:31:26.415Z,-1.51
2024-01-11T21:33:54.637Z,-1.57
2024-01-11T21:36:25.349Z,-1.58
2024-01-11T21:38:55.298Z,-1.60
2024-01-11T21:41:25.098Z,-1.65
2024-01-11T21:43:55.496Z,-1.65
2024-01-11T21:46:26.482Z,-1.61
2024-01-11T21:48:55.051Z,-1.65
2024-01-11T21:51:23.373Z,-1.63
2024-01-11T21:53:55.863Z,-1.57
2024-01-11T21:56:27.197Z,-1.57
2024-01-11T21:58:55.647Z,-1.60
2024-01-11T22:01:23.993Z,-1.68
2024-01-11T22:03:53.332Z,-1.72
2024-01-11T22:06:23.072Z,-1.77
2024-01-11T22:08:51.132Z,-1.81
2024-01-11T22:11:19.394Z,-1.83
2024-01-11T22:13:47.313Z,-1.83
2024-01-11T22:16:15.408Z,-1.80
2024-01-11T22:18:43.370Z,-1.78
2024-01-11T22:21:11.451Z,-1.78
2024-01-11T22:23:39.320Z,-1.80
2024-01-11T22:26:07.155Z,-1.83
2024-01-11T22:28:35.079Z,-1.79
2024-01-11T22:31:03.064Z,-1.80
2024-01-11T22:33:32.552Z,-1.84
2024-01-11T22:36:00.593Z,-1.89
2024-01-11T22:38:30.010Z,-1.96
2024-01-11T22:40:57.940Z,-1.99
2024-01-11T22:43:25.895Z,-2.03
2024-01-11T22:45:54.163Z,-2.11
2024-01-11T22:48:22.351Z,-2.18
2024-01-11T22:50:50.411Z,-2.23
2024-01-11T22:53:18.357Z,-2.27
2024-01-11T22:55:46.086Z,-2.24
2024-01-11T22:58:13.999Z,-2.23
2024-01-11T23:00:44.791Z,-2.20
2024-01-11T23:03:12.822Z,-2.17
2024-01-11T23:05:40.910Z,-2.14
2024-01-11T23:08:08.780Z,-2.14
2024-01-11T23:10:37.872Z,-2.15
2024-01-11T23:13:08.131Z,-2.23
2024-01-11T23:15:36.252Z,-2.27
2024-01-11T23:18:04.955Z,-2.28
2024-01-11T23:20:33.170Z,-2.29
2024-01-11T23:23:01.070Z,-2.29
2024-01-11T23:25:30.715Z,-2.31
2024-01-11T23:27:58.445Z,-2.38
2024-01-11T23:30:26.534Z,-2.43
2024-01-11T23:32:54.625Z,-2.46
2024-01-11T23:35:22.630Z,-2.43
2024-01-11T23:37:50.497Z,-2.39
2024-01-11T23:40:20.100Z,-2.35
2024-01-11T23:42:47.924Z,-2.31
2024-01-11T23:45:15.766Z,-2.26
2024-01-11T23:47:43.790Z,-2.25
2024-01-11T23:50:12.000Z,-2.28
2024-01-11T23:52:40.031Z,-2.28
2024-01-11T23:55:08.060Z,-2.32
2024-01-11T23:57:35.880Z,-2.31
